createdAt,value
2023-04-11T00:03:25.278Z,80.32
2023-04-11T00:08:28.521Z,82.32
2023-04-11T00:13:30.263Z,84.59
2023-04-11T00:18:35.892Z,84.54
2023-04-11T00:23:39.539Z,85.70
2023-04-11T00:28:41.292Z,86.25
2023-04-11T00:33:43.153Z,87.47
2023-04-11T00:38:46.339Z,88.15
2023-04-11T00:43:49.588Z,88.25
2023-04-11T00:48:51.429Z,89.70
2023-04-11T00:53:54.600Z,89.83
2023-04-11T00:58:56.522Z,90.97
2023-04-11T01:04:01.074Z,91.58
2023-04-11T01:09:06.213Z,92.95
2023-04-11T01:14:07.924Z,93.63
2023-04-11T01:19:09.634Z,93.93
2023-04-11T01:24:12.778Z,93.91
2023-04-11T01:29:15.005Z,94.97
2023-04-11T01:34:17.752Z,95.77
2023-04-11T01:39:20.876Z,95.36
2023-04-11T01:44:22.696Z,95.59
2023-04-11T01:49:24.733Z,95.57
2023-04-11T01:54:28.565Z,95.26
2023-04-11T01:59:30.340Z,95.37
2023-04-11T02:04:32.178Z,95.64
2023-04-11T02:09:36.266Z,94.93
2023-04-11T02:14:41.980Z,94.46
2023-04-11T02:19:45.223Z,94.37
2023-04-11T02:24:48.379Z,93.92
2023-04-11T02:29:50.420Z,94.06
2023-04-11T02:34:52.142Z,94.04
2023-04-11T02:39:55.861Z,93.78
2023-04-11T02:44:57.581Z,93.72
2023-04-11T02:50:02.554Z,93.58
2023-04-11T02:55:11.290Z,93.78
2023-04-11T03:00:13.604Z,93.33
2023-04-11T03:05:23.987Z,92.97
2023-04-11T03:10:29.630Z,92.60
2023-04-11T03:15:32.640Z,92.38
2023-04-11T03:20:39.222Z,91.97
2023-04-11T03:25:48.375Z,91.50
2023-04-11T03:30:52.985Z,91.15
2023-04-11T03:35:57.174Z,91.27
2023-04-11T03:41:00.915Z,91.17
2023-04-11T03:46:03.267Z,91.08
2023-04-11T03:51:15.474Z,90.53
2023-04-11T03:56:27.946Z,90.43
2023-04-11T04:01:30.230Z,89.84
2023-04-11T04:06:36.281Z,89.60
2023-04-11T04:11:40.411Z,86.80
2023-04-11T04:16:42.297Z,82.25
2023-04-11T04:21:46.602Z,84.82
2023-04-11T04:26:52.409Z,84.98
2023-04-11T04:32:11.243Z,86.19
2023-04-11T04:37:23.152Z,86.56
2023-04-11T04:42:32.764Z,87.12
2023-04-11T04:47:38.601Z,87.80
2023-04-11T04:52:41.124Z,88.74
2023-04-11T04:57:44.633Z,88.75
2023-04-11T05:02:47.074Z,88.58
2023-04-11T05:07:49.110Z,89.16
2023-04-11T05:12:53.549Z,89.13
2023-04-11T05:17:55.614Z,88.31
2023-04-11T05:22:57.646Z,89.34
2023-04-11T05:28:01.042Z,89.36
2023-04-11T05:33:03.112Z,89.85
2023-04-11T05:38:05.162Z,89.48
2023-04-11T05:43:13.340Z,89.69
2023-04-11T05:48:16.174Z,89.97
2023-04-11T05:53:18.333Z,90.48
2023-04-11T05:58:21.483Z,90.55
2023-04-11T06:03:23.382Z,90.86
2023-04-11T06:08:25.458Z,91.15
2023-04-11T06:13:28.585Z,90.33
2023-04-11T06:18:30.343Z,88.52
2023-04-11T06:23:31.991Z,89.13
2023-04-11T06:28:35.176Z,91.46
2023-04-11T06:33:37.672Z,92.34
2023-04-11T06:38:40.511Z,92.21
2023-04-11T06:43:43.567Z,92.00
2023-04-11T06:48:45.241Z,92.28
2023-04-11T06:53:47.018Z,93.04
2023-04-11T06:58:50.075Z,92.32
2023-04-11T07:03:53.098Z,92.94
2023-04-11T07:08:54.915Z,93.31
2023-04-11T07:13:58.722Z,92.94
2023-04-11T07:19:00.459Z,91.88
2023-04-11T07:24:02.167Z,93.32
2023-04-11T07:29:06.074Z,91.27
2023-04-11T07:34:09.606Z,88.89
2023-04-11T07:39:12.305Z,88.83
2023-04-11T07:44:15.426Z,89.98
2023-04-11T07:49:17.115Z,89.70
2023-04-11T07:54:18.837Z,90.79
2023-04-11T07:59:21.912Z,89.75
2023-04-11T08:04:23.885Z,90.40
2023-04-11T08:09:27.449Z,90.14
2023-04-11T08:14:30.575Z,90.48
2023-04-11T08:19:32.333Z,90.06
2023-04-11T08:24:34.021Z,89.61
2023-04-11T08:29:37.440Z,89.60
2023-04-11T08:34:39.122Z,90.35
2023-04-11T08:39:49.244Z,90.02
2023-04-11T08:45:05.382Z,90.97
2023-04-11T08:50:16.412Z,90.75
2023-04-11T08:55:25.246Z,90.97
2023-04-11T09:01:00.173Z,90.99
2023-04-11T09:06:09.508Z,90.58
2023-04-11T09:11:17.467Z,89.49
2023-04-11T09:16:25.514Z,89.57
2023-04-11T09:21:31.431Z,85.98
2023-04-11T09:26:33.708Z,85.90
2023-04-11T09:31:42.401Z,85.21
2023-04-11T09:36:44.330Z,82.85
2023-04-11T09:41:46.282Z,80.47
2023-04-11T09:46:58.777Z,83.63
2023-04-11T09:52:01.115Z,83.09
2023-04-11T09:57:02.966Z,80.82
2023-04-11T10:02:06.071Z,77.93
2023-04-11T10:07:11.973Z,74.90
2023-04-11T10:12:13.710Z,70.62
2023-04-11T10:17:20.728Z,71.69
2023-04-11T10:22:58.236Z,66.72
2023-04-11T10:28:06.264Z,69.43
2023-04-11T10:33:12.749Z,66.91
2023-04-11T10:38:46.074Z,66.51
2023-04-11T10:43:47.929Z,68.63
2023-04-11T10:48:58.649Z,68.18
2023-04-11T10:54:00.929Z,68.56
2023-04-11T10:59:03.103Z,70.83
2023-04-11T11:04:06.915Z,72.53
2023-04-11T11:09:20.919Z,75.27
2023-04-11T11:14:27.986Z,76.47
2023-04-11T11:19:31.308Z,79.53
2023-04-11T11:24:33.026Z,73.93
2023-04-11T11:29:36.149Z,68.39
2023-04-11T11:34:39.205Z,64.11
2023-04-11T11:39:40.959Z,61.63
2023-04-11T11:44:42.656Z,58.83
2023-04-11T11:49:46.579Z,60.08
2023-04-11T11:54:48.311Z,61.63
2023-04-11T11:59:53.841Z,61.32
2023-04-11T12:04:58.146Z,62.57
2023-04-11T12:10:00.088Z,67.19
2023-04-11T12:15:02.054Z,68.41
2023-04-11T12:20:06.909Z,67.06
2023-04-11T12:25:09.876Z,68.18
2023-04-11T12:30:12.612Z,63.62
2023-04-11T12:35:15.636Z,62.25
2023-04-11T12:40:17.490Z,60.26
2023-04-11T12:45:19.160Z,58.17
2023-04-11T12:50:25.207Z,54.66
2023-04-11T12:55:27.357Z,55.17
2023-04-11T13:00:29.291Z,54.05
2023-04-11T13:05:32.413Z,54.81
2023-04-11T13:10:34.138Z,54.10
2023-04-11T13:15:35.884Z,61.12
2023-04-11T13:20:39.048Z,58.45
2023-04-11T13:25:41.000Z,59.91
2023-04-11T13:30:42.737Z,55.61
2023-04-11T13:35:45.827Z,52.93
2023-04-11T13:40:47.493Z,50.88
2023-04-11T13:45:49.219Z,53.50
2023-04-11T13:50:52.269Z,54.98
2023-04-11T13:55:54.584Z,57.19
2023-04-11T14:00:56.299Z,56.04
2023-04-11T14:05:59.321Z,57.35
2023-04-11T14:11:01.349Z,55.71
2023-04-11T14:16:08.727Z,58.34
2023-04-11T14:21:12.401Z,56.85
2023-04-11T14:26:14.100Z,57.91
2023-04-11T14:31:15.975Z,58.50
2023-04-11T14:36:19.097Z,58.26
2023-04-11T14:41:20.879Z,58.58
2023-04-11T14:46:22.623Z,63.38
2023-04-11T14:51:27.664Z,66.82
2023-04-11T14:56:29.463Z,71.74
2023-04-11T15:01:31.648Z,78.13
2023-04-11T15:06:35.131Z,81.42
2023-04-11T15:11:37.117Z,83.44
2023-04-11T15:16:38.822Z,79.54
2023-04-11T15:21:41.911Z,75.37
2023-04-11T15:26:44.586Z,76.15
2023-04-11T15:31:46.361Z,74.52
2023-04-11T15:36:50.050Z,76.03
2023-04-11T15:41:51.915Z,72.88
2023-04-11T15:46:53.682Z,68.28
2023-04-11T15:51:56.737Z,66.24
2023-04-11T15:57:07.725Z,67.72
2023-04-11T16:02:09.576Z,71.77
2023-04-11T16:07:12.642Z,67.31
2023-04-11T16:12:14.374Z,67.53
2023-04-11T16:17:18.245Z,66.95
2023-04-11T16:22:21.370Z,68.29
2023-04-11T16:27:23.085Z,69.02
2023-04-11T16:32:24.817Z,68.81
2023-04-11T16:37:27.984Z,68.49
2023-04-11T16:42:29.708Z,64.85
2023-04-11T16:47:31.566Z,62.63
2023-04-11T16:52:34.647Z,62.08
2023-04-11T16:57:36.304Z,63.12
2023-04-11T17:02:38.151Z,65.47
2023-04-11T17:07:41.685Z,63.65
2023-04-11T17:12:43.382Z,64.73
2023-04-11T17:17:45.176Z,64.04
2023-04-11T17:22:48.196Z,64.01
2023-04-11T17:27:49.862Z,68.11
2023-04-11T17:32:52.836Z,67.17
2023-04-11T17:37:55.964Z,64.71
2023-04-11T17:42:57.811Z,62.90
2023-04-11T17:47:59.980Z,63.54
2023-04-11T17:53:04.666Z,64.58
2023-04-11T17:58:06.416Z,65.54
2023-04-11T18:03:08.612Z,67.58
2023-04-11T18:08:13.035Z,67.06
2023-04-11T18:13:14.730Z,66.35
2023-04-11T18:18:16.611Z,67.60
2023-04-11T18:23:19.784Z,67.52
2023-04-11T18:28:21.496Z,68.64
2023-04-11T18:33:24.335Z,69.24
2023-04-11T18:38:27.532Z,69.50
2023-04-11T18:43:29.288Z,70.01
2023-04-11T18:48:31.762Z,71.31
2023-04-11T18:53:36.454Z,71.65
2023-04-11T18:58:45.793Z,71.87
2023-04-11T19:03:49.193Z,73.59
2023-04-11T19:08:52.388Z,74.32
2023-04-11T19:13:55.094Z,75.90
2023-04-11T19:18:57.804Z,75.73
2023-04-11T19:24:00.928Z,77.02
2023-04-11T19:29:02.637Z,77.76
2023-04-11T19:34:04.671Z,79.58
2023-04-11T19:39:08.260Z,78.98
2023-04-11T19:44:10.027Z,78.35
2023-04-11T19:49:11.955Z,78.33
2023-04-11T19:54:15.097Z,78.52
2023-04-11T19:59:16.845Z,78.15
2023-04-11T20:04:18.731Z,78.61
2023-04-11T20:09:21.944Z,78.91
2023-04-11T20:14:23.787Z,79.45
2023-04-11T20:19:28.360Z,79.08
2023-04-11T20:24:31.532Z,79.03
2023-04-11T20:29:33.351Z,78.94
2023-04-11T20:34:35.111Z,79.35
2023-04-11T20:39:38.173Z,79.11
2023-04-11T20:44:41.551Z,79.63
2023-04-11T20:49:45.570Z,79.58
2023-04-11T20:54:48.769Z,79.57
2023-04-11T20:59:50.521Z,79.86
2023-04-11T21:04:53.113Z,79.88
2023-04-11T21:09:56.345Z,80.34
2023-04-11T21:14:58.832Z,80.49
2023-04-11T21:20:00.835Z,80.29
2023-04-11T21:25:04.436Z,80.71
2023-04-11T21:30:07.465Z,81.35
2023-04-11T21:35:09.953Z,81.12
2023-04-11T21:40:13.144Z,81.76
2023-04-11T21:45:15.529Z,82.34
2023-04-11T21:50:17.472Z,83.09
2023-04-11T21:55:21.067Z,83.00
2023-04-11T22:00:23.155Z,83.34
2023-04-11T22:05:26.010Z,83.58
2023-04-11T22:10:41.196Z,84.48
2023-04-11T22:16:05.416Z,84.32
2023-04-11T22:21:09.209Z,85.00
2023-04-11T22:26:12.359Z,85.10
2023-04-11T22:31:14.109Z,85.23
2023-04-11T22:36:16.409Z,85.57
2023-04-11T22:41:19.454Z,85.56
2023-04-11T22:46:21.209Z,85.09
2023-04-11T22:51:25.393Z,85.05
2023-04-11T22:56:28.468Z,84.70
2023-04-11T23:01:30.262Z,84.58
2023-04-11T23:06:32.106Z,84.83
2023-04-11T23:11:35.166Z,85.49
2023-04-11T23:16:36.944Z,85.04
2023-04-11T23:21:38.732Z,85.38
2023-04-11T23:26:42.266Z,85.21
2023-04-11T23:31:44.199Z,85.68
2023-04-11T23:36:45.946Z,85.91
2023-04-11T23:41:49.101Z,86.68
2023-04-11T23:46:50.922Z,86.74
2023-04-11T23:51:52.666Z,86.66
2023-04-11T23:56:57.085Z,86.74
